Terminal Aerodrome Forecast
Issued by NWS Wakefield, VA

Home | Current Version | Previous Version | Text Only | Print | Product List | Glossary On
Versions: 1 2 3 4 5 6 7 8 9 10 11 12
000
FTUS41 KAKQ 310500
TAFSBY
TAF
KSBY 310520Z 3106/0106 VRB03KT P6SM SCT250
     FM311400 23007KT P6SM SCT050 BKN250
     FM010000 18005KT P6SM BKN250=

USA.gov is the U.S. government's official web portal to all federal, state and local government web resources and services.